sensor_id;sensor_type;location;lat;lon;timestamp;temperature;humidity
4433;DHT22;2229;48.708;9.706;2023-04-25T00:00:31;9.00;95.90
4433;DHT22;2229;48.708;9.706;2023-04-25T00:02:58;9.10;96.10
4433;DHT22;2229;48.708;9.706;2023-04-25T00:05:26;9.10;96.20
4433;DHT22;2229;48.708;9.706;2023-04-25T00:07:53;9.10;96.40
4433;DHT22;2229;48.708;9.706;2023-04-25T00:10:20;9.10;96.50
4433;DHT22;2229;48.708;9.706;2023-04-25T00:12:49;9.10;96.70
4433;DHT22;2229;48.708;9.706;2023-04-25T00:15:17;9.10;96.80
4433;DHT22;2229;48.708;9.706;2023-04-25T00:17:44;9.10;97.00
4433;DHT22;2229;48.708;9.706;2023-04-25T00:20:12;9.10;97.10
4433;DHT22;2229;48.708;9.706;2023-04-25T00:22:40;9.10;97.20
4433;DHT22;2229;48.708;9.706;2023-04-25T00:25:07;9.10;97.30
4433;DHT22;2229;48.708;9.706;2023-04-25T00:27:35;9.10;97.40
4433;DHT22;2229;48.708;9.706;2023-04-25T00:30:05;9.10;97.50
4433;DHT22;2229;48.708;9.706;2023-04-25T00:32:32;9.10;97.60
4433;DHT22;2229;48.708;9.706;2023-04-25T00:35:00;9.10;97.70
4433;DHT22;2229;48.708;9.706;2023-04-25T00:37:27;9.30;98.00
4433;DHT22;2229;48.708;9.706;2023-04-25T00:39:54;9.10;98.00
4433;DHT22;2229;48.708;9.706;2023-04-25T00:42:22;9.20;98.10
4433;DHT22;2229;48.708;9.706;2023-04-25T00:44:50;9.10;98.20
4433;DHT22;2229;48.708;9.706;2023-04-25T00:47:19;9.10;98.40
4433;DHT22;2229;48.708;9.706;2023-04-25T00:49:47;9.10;98.50
4433;DHT22;2229;48.708;9.706;2023-04-25T00:52:14;9.10;98.60
4433;DHT22;2229;48.708;9.706;2023-04-25T00:54:41;9.10;98.60
4433;DHT22;2229;48.708;9.706;2023-04-25T00:57:08;9.10;98.60
4433;DHT22;2229;48.708;9.706;2023-04-25T00:59:37;9.00;98.60
4433;DHT22;2229;48.708;9.706;2023-04-25T01:02:05;9.00;98.70
4433;DHT22;2229;48.708;9.706;2023-04-25T01:04:34;9.00;98.90
4433;DHT22;2229;48.708;9.706;2023-04-25T01:07:02;9.00;99.00
4433;DHT22;2229;48.708;9.706;2023-04-25T01:09:30;9.00;99.20
4433;DHT22;2229;48.708;9.706;2023-04-25T01:11:58;9.00;99.40
4433;DHT22;2229;48.708;9.706;2023-04-25T01:14:26;9.00;99.60
4433;DHT22;2229;48.708;9.706;2023-04-25T01:16:53;9.00;99.70
4433;DHT22;2229;48.708;9.706;2023-04-25T01:19:20;9.00;99.80
4433;DHT22;2229;48.708;9.706;2023-04-25T01:21:49;9.00;99.90
4433;DHT22;2229;48.708;9.706;2023-04-25T01:24:17;9.10;99.90
4433;DHT22;2229;48.708;9.706;2023-04-25T01:26:45;9.10;99.90
4433;DHT22;2229;48.708;9.706;2023-04-25T01:29:19;9.10;99.90
4433;DHT22;2229;48.708;9.706;2023-04-25T01:31:47;9.10;99.90
4433;DHT22;2229;48.708;9.706;2023-04-25T01:34:14;9.10;99.90
4433;DHT22;2229;48.708;9.706;2023-04-25T01:36:41;9.10;99.90
4433;DHT22;2229;48.708;9.706;2023-04-25T01:39:10;9.20;99.90
4433;DHT22;2229;48.708;9.706;2023-04-25T01:41:38;9.10;99.90
4433;DHT22;2229;48.708;9.706;2023-04-25T01:44:06;9.50;99.90
4433;DHT22;2229;48.708;9.706;2023-04-25T01:46:34;9.20;99.90
4433;DHT22;2229;48.708;9.706;2023-04-25T01:49:02;9.20;99.90
4433;DHT22;2229;48.708;9.706;2023-04-25T01:51:30;9.20;99.90
4433;DHT22;2229;48.708;9.706;2023-04-25T01:53:58;9.40;99.90
4433;DHT22;2229;48.708;9.706;2023-04-25T01:56:30;9.10;99.90
4433;DHT22;2229;48.708;9.706;2023-04-25T01:58:57;9.10;99.90
4433;DHT22;2229;48.708;9.706;2023-04-25T02:01:45;9.10;99.90
4433;DHT22;2229;48.708;9.706;2023-04-25T02:04:21;9.10;99.90
4433;DHT22;2229;48.708;9.706;2023-04-25T02:06:48;9.10;99.90
4433;DHT22;2229;48.708;9.706;2023-04-25T02:09:15;9.20;99.90
4433;DHT22;2229;48.708;9.706;2023-04-25T02:11:53;9.10;99.90
4433;DHT22;2229;48.708;9.706;2023-04-25T02:14:22;9.20;99.90
4433;DHT22;2229;48.708;9.706;2023-04-25T02:16:58;9.20;99.90
4433;DHT22;2229;48.708;9.706;2023-04-25T02:19:25;9.10;99.90
4433;DHT22;2229;48.708;9.706;2023-04-25T02:21:53;9.10;99.90
4433;DHT22;2229;48.708;9.706;2023-04-25T02:24:20;9.10;99.90
4433;DHT22;2229;48.708;9.706;2023-04-25T02:26:47;9.10;99.90
4433;DHT22;2229;48.708;9.706;2023-04-25T02:29:16;9.00;99.90
4433;DHT22;2229;48.708;9.706;2023-04-25T02:31:43;9.00;99.90
4433;DHT22;2229;48.708;9.706;2023-04-25T02:34:10;8.90;99.90
4433;DHT22;2229;48.708;9.706;2023-04-25T02:36:38;8.90;99.90
4433;DHT22;2229;48.708;9.706;2023-04-25T02:39:05;8.90;99.90
4433;DHT22;2229;48.708;9.706;2023-04-25T02:41:34;8.90;99.90
4433;DHT22;2229;48.708;9.706;2023-04-25T02:44:01;8.90;99.90
4433;DHT22;2229;48.708;9.706;2023-04-25T02:46:29;8.80;99.90
4433;DHT22;2229;48.708;9.706;2023-04-25T02:48:59;8.80;99.90
4433;DHT22;2229;48.708;9.706;2023-04-25T02:51:26;8.70;99.90
4433;DHT22;2229;48.708;9.706;2023-04-25T02:53:53;8.70;99.90
4433;DHT22;2229;48.708;9.706;2023-04-25T02:56:20;8.70;99.90
4433;DHT22;2229;48.708;9.706;2023-04-25T02:58:48;8.60;99.90
4433;DHT22;2229;48.708;9.706;2023-04-25T03:01:15;8.60;99.90
4433;DHT22;2229;48.708;9.706;2023-04-25T03:03:44;8.60;99.90
4433;DHT22;2229;48.708;9.706;2023-04-25T03:06:12;8.70;99.90
4433;DHT22;2229;48.708;9.706;2023-04-25T03:08:39;8.60;99.90
4433;DHT22;2229;48.708;9.706;2023-04-25T03:11:06;8.70;99.90
4433;DHT22;2229;48.708;9.706;2023-04-25T03:13:34;8.70;99.90
4433;DHT22;2229;48.708;9.706;2023-04-25T03:16:02;8.70;99.90
4433;DHT22;2229;48.708;9.706;2023-04-25T03:18:29;8.70;99.90
4433;DHT22;2229;48.708;9.706;2023-04-25T03:20:58;8.70;99.90
4433;DHT22;2229;48.708;9.706;2023-04-25T03:23:25;8.70;99.90
4433;DHT22;2229;48.708;9.706;2023-04-25T03:25:52;8.60;99.90
4433;DHT22;2229;48.708;9.706;2023-04-25T03:28:20;8.60;99.90
4433;DHT22;2229;48.708;9.706;2023-04-25T03:30:47;8.60;99.90
4433;DHT22;2229;48.708;9.706;2023-04-25T03:33:14;8.50;99.90
4433;DHT22;2229;48.708;9.706;2023-04-25T03:35:42;8.40;99.90
4433;DHT22;2229;48.708;9.706;2023-04-25T03:38:10;8.40;99.90
4433;DHT22;2229;48.708;9.706;2023-04-25T03:40:40;8.30;99.90
4433;DHT22;2229;48.708;9.706;2023-04-25T03:43:18;8.30;99.90
4433;DHT22;2229;48.708;9.706;2023-04-25T03:45:52;8.30;99.90
4433;DHT22;2229;48.708;9.706;2023-04-25T03:48:22;8.30;99.90
4433;DHT22;2229;48.708;9.706;2023-04-25T03:50:50;8.30;99.90
4433;DHT22;2229;48.708;9.706;2023-04-25T03:53:19;8.30;99.90
4433;DHT22;2229;48.708;9.706;2023-04-25T03:56:06;8.40;99.90
4433;DHT22;2229;48.708;9.706;2023-04-25T03:58:35;8.40;99.90
4433;DHT22;2229;48.708;9.706;2023-04-25T04:01:02;8.40;99.90
4433;DHT22;2229;48.708;9.706;2023-04-25T04:03:33;8.40;99.90
4433;DHT22;2229;48.708;9.706;2023-04-25T04:06:02;8.40;99.90
4433;DHT22;2229;48.708;9.706;2023-04-25T04:08:31;8.40;99.90
4433;DHT22;2229;48.708;9.706;2023-04-25T04:10:58;8.50;99.90
4433;DHT22;2229;48.708;9.706;2023-04-25T04:13:26;8.50;99.90
4433;DHT22;2229;48.708;9.706;2023-04-25T04:15:54;8.50;99.90
4433;DHT22;2229;48.708;9.706;2023-04-25T04:18:22;8.50;99.90
4433;DHT22;2229;48.708;9.706;2023-04-25T04:20:50;8.60;99.90
4433;DHT22;2229;48.708;9.706;2023-04-25T04:23:18;8.60;99.90
4433;DHT22;2229;48.708;9.706;2023-04-25T04:25:47;8.60;99.90
4433;DHT22;2229;48.708;9.706;2023-04-25T04:28:23;8.60;99.90
4433;DHT22;2229;48.708;9.706;2023-04-25T04:31:17;8.60;99.90
4433;DHT22;2229;48.708;9.706;2023-04-25T04:33:46;8.50;99.90
4433;DHT22;2229;48.708;9.706;2023-04-25T04:36:14;8.50;99.90
4433;DHT22;2229;48.708;9.706;2023-04-25T04:38:42;8.60;99.90
4433;DHT22;2229;48.708;9.706;2023-04-25T04:41:18;8.60;99.90
4433;DHT22;2229;48.708;9.706;2023-04-25T04:44:09;8.60;99.90
4433;DHT22;2229;48.708;9.706;2023-04-25T04:46:44;8.70;99.90
4433;DHT22;2229;48.708;9.706;2023-04-25T04:49:45;8.60;99.90
4433;DHT22;2229;48.708;9.706;2023-04-25T04:52:29;8.70;99.90
4433;DHT22;2229;48.708;9.706;2023-04-25T04:55:25;8.70;99.90
4433;DHT22;2229;48.708;9.706;2023-04-25T04:58:05;8.70;99.90
4433;DHT22;2229;48.708;9.706;2023-04-25T05:00:44;8.80;99.90
4433;DHT22;2229;48.708;9.706;2023-04-25T05:03:32;8.70;99.90
4433;DHT22;2229;48.708;9.706;2023-04-25T05:06:09;8.80;99.90
4433;DHT22;2229;48.708;9.706;2023-04-25T05:08:57;8.80;99.90
4433;DHT22;2229;48.708;9.706;2023-04-25T05:11:42;8.80;99.90
4433;DHT22;2229;48.708;9.706;2023-04-25T05:14:49;8.90;99.90
4433;DHT22;2229;48.708;9.706;2023-04-25T05:17:35;8.90;99.90
4433;DHT22;2229;48.708;9.706;2023-04-25T05:20:26;9.00;99.90
4433;DHT22;2229;48.708;9.706;2023-04-25T05:23:02;9.00;99.90
4433;DHT22;2229;48.708;9.706;2023-04-25T05:25:55;9.00;99.90
4433;DHT22;2229;48.708;9.706;2023-04-25T05:28:35;9.10;99.90
4433;DHT22;2229;48.708;9.706;2023-04-25T05:31:18;9.10;99.90
4433;DHT22;2229;48.708;9.706;2023-04-25T05:33:57;9.20;99.90
4433;DHT22;2229;48.708;9.706;2023-04-25T05:36:32;9.20;99.90
4433;DHT22;2229;48.708;9.706;2023-04-25T05:39:00;9.20;99.90
4433;DHT22;2229;48.708;9.706;2023-04-25T05:41:46;9.20;99.90
4433;DHT22;2229;48.708;9.706;2023-04-25T05:44:42;9.20;99.90
4433;DHT22;2229;48.708;9.706;2023-04-25T05:47:20;9.20;99.90
4433;DHT22;2229;48.708;9.706;2023-04-25T05:50:08;9.20;99.90
4433;DHT22;2229;48.708;9.706;2023-04-25T05:52:44;9.20;99.90
4433;DHT22;2229;48.708;9.706;2023-04-25T05:55:37;9.20;99.90
4433;DHT22;2229;48.708;9.706;2023-04-25T05:58:20;9.20;99.90
4433;DHT22;2229;48.708;9.706;2023-04-25T06:00:48;9.20;99.90
4433;DHT22;2229;48.708;9.706;2023-04-25T06:03:18;9.20;99.90
4433;DHT22;2229;48.708;9.706;2023-04-25T06:05:46;9.20;99.90
4433;DHT22;2229;48.708;9.706;2023-04-25T06:08:13;9.20;99.90
4433;DHT22;2229;48.708;9.706;2023-04-25T06:10:40;9.30;99.90
4433;DHT22;2229;48.708;9.706;2023-04-25T06:13:07;9.40;99.90
4433;DHT22;2229;48.708;9.706;2023-04-25T06:15:36;9.30;99.90
4433;DHT22;2229;48.708;9.706;2023-04-25T06:18:03;9.30;99.90
4433;DHT22;2229;48.708;9.706;2023-04-25T06:20:32;9.40;99.90
4433;DHT22;2229;48.708;9.706;2023-04-25T06:23:00;9.30;99.90
4433;DHT22;2229;48.708;9.706;2023-04-25T06:25:45;9.40;99.90
4433;DHT22;2229;48.708;9.706;2023-04-25T06:28:13;9.30;99.90
4433;DHT22;2229;48.708;9.706;2023-04-25T06:30:41;9.30;99.90
4433;DHT22;2229;48.708;9.706;2023-04-25T06:33:13;9.30;99.90
4433;DHT22;2229;48.708;9.706;2023-04-25T06:35:42;9.30;99.90
4433;DHT22;2229;48.708;9.706;2023-04-25T06:38:13;9.40;99.90
4433;DHT22;2229;48.708;9.706;2023-04-25T06:40:44;9.00;99.90
4433;DHT22;2229;48.708;9.706;2023-04-25T06:43:13;9.50;99.90
4433;DHT22;2229;48.708;9.706;2023-04-25T06:45:55;9.60;99.90
4433;DHT22;2229;48.708;9.706;2023-04-25T06:48:25;9.70;99.90
4433;DHT22;2229;48.708;9.706;2023-04-25T06:50:54;9.70;99.90
4433;DHT22;2229;48.708;9.706;2023-04-25T06:53:23;9.80;99.90
4433;DHT22;2229;48.708;9.706;2023-04-25T06:55:56;9.80;99.90
4433;DHT22;2229;48.708;9.706;2023-04-25T06:58:27;9.90;99.90
4433;DHT22;2229;48.708;9.706;2023-04-25T07:01:10;10.10;99.90
4433;DHT22;2229;48.708;9.706;2023-04-25T07:03:38;10.30;99.90
4433;DHT22;2229;48.708;9.706;2023-04-25T07:06:14;10.50;99.90
4433;DHT22;2229;48.708;9.706;2023-04-25T07:08:41;10.70;99.40
4433;DHT22;2229;48.708;9.706;2023-04-25T07:11:08;10.90;99.20
4433;DHT22;2229;48.708;9.706;2023-04-25T07:13:37;11.10;98.80
4433;DHT22;2229;48.708;9.706;2023-04-25T07:16:05;11.20;98.20
4433;DHT22;2229;48.708;9.706;2023-04-25T07:18:34;11.30;97.60
4433;DHT22;2229;48.708;9.706;2023-04-25T07:21:02;11.40;97.10
4433;DHT22;2229;48.708;9.706;2023-04-25T07:23:33;11.40;96.80
4433;DHT22;2229;48.708;9.706;2023-04-25T07:26:06;11.40;96.30
4433;DHT22;2229;48.708;9.706;2023-04-25T07:28:33;11.50;96.20
4433;DHT22;2229;48.708;9.706;2023-04-25T07:31:01;11.40;95.90
4433;DHT22;2229;48.708;9.706;2023-04-25T07:33:31;11.30;95.90
4433;DHT22;2229;48.708;9.706;2023-04-25T07:35:58;11.20;95.70
4433;DHT22;2229;48.708;9.706;2023-04-25T07:38:25;11.10;95.30
4433;DHT22;2229;48.708;9.706;2023-04-25T07:40:56;11.00;94.80
4433;DHT22;2229;48.708;9.706;2023-04-25T07:43:23;10.90;95.00
4433;DHT22;2229;48.708;9.706;2023-04-25T07:45:58;10.90;95.20
4433;DHT22;2229;48.708;9.706;2023-04-25T07:48:28;10.80;95.10
4433;DHT22;2229;48.708;9.706;2023-04-25T07:50:56;10.80;95.20
4433;DHT22;2229;48.708;9.706;2023-04-25T07:53:23;10.80;95.20
4433;DHT22;2229;48.708;9.706;2023-04-25T07:55:57;10.80;95.30
4433;DHT22;2229;48.708;9.706;2023-04-25T07:58:24;10.80;95.40
4433;DHT22;2229;48.708;9.706;2023-04-25T08:00:55;10.80;95.60
4433;DHT22;2229;48.708;9.706;2023-04-25T08:03:35;10.80;95.80
4433;DHT22;2229;48.708;9.706;2023-04-25T08:06:05;10.80;95.90
4433;DHT22;2229;48.708;9.706;2023-04-25T08:08:38;10.80;96.10
4433;DHT22;2229;48.708;9.706;2023-04-25T08:11:07;10.70;95.70
4433;DHT22;2229;48.708;9.706;2023-04-25T08:13:36;10.60;95.70
4433;DHT22;2229;48.708;9.706;2023-04-25T08:16:04;10.60;95.50
4433;DHT22;2229;48.708;9.706;2023-04-25T08:18:32;10.50;95.70
4433;DHT22;2229;48.708;9.706;2023-04-25T08:20:59;10.50;95.90
4433;DHT22;2229;48.708;9.706;2023-04-25T08:23:26;10.30;96.10
4433;DHT22;2229;48.708;9.706;2023-04-25T08:26:02;10.20;96.30
4433;DHT22;2229;48.708;9.706;2023-04-25T08:28:33;10.40;96.80
4433;DHT22;2229;48.708;9.706;2023-04-25T08:31:01;10.10;97.20
4433;DHT22;2229;48.708;9.706;2023-04-25T08:33:36;10.10;97.50
4433;DHT22;2229;48.708;9.706;2023-04-25T08:36:17;10.00;97.50
4433;DHT22;2229;48.708;9.706;2023-04-25T08:38:46;10.00;97.60
4433;DHT22;2229;48.708;9.706;2023-04-25T08:41:14;10.00;97.70
4433;DHT22;2229;48.708;9.706;2023-04-25T08:43:43;9.90;98.20
4433;DHT22;2229;48.708;9.706;2023-04-25T08:46:11;9.90;98.50
4433;DHT22;2229;48.708;9.706;2023-04-25T08:48:49;9.80;98.70
4433;DHT22;2229;48.708;9.706;2023-04-25T08:51:22;9.80;99.20
4433;DHT22;2229;48.708;9.706;2023-04-25T08:53:51;9.70;99.50
4433;DHT22;2229;48.708;9.706;2023-04-25T08:56:19;9.70;99.70
4433;DHT22;2229;48.708;9.706;2023-04-25T08:58:51;9.60;99.90
4433;DHT22;2229;48.708;9.706;2023-04-25T09:01:19;9.60;99.90
4433;DHT22;2229;48.708;9.706;2023-04-25T09:03:51;9.60;99.90
4433;DHT22;2229;48.708;9.706;2023-04-25T09:06:19;9.60;99.90
4433;DHT22;2229;48.708;9.706;2023-04-25T09:08:50;9.60;99.90
4433;DHT22;2229;48.708;9.706;2023-04-25T09:11:17;9.60;99.90
4433;DHT22;2229;48.708;9.706;2023-04-25T09:13:45;9.60;99.90
4433;DHT22;2229;48.708;9.706;2023-04-25T09:16:23;9.60;99.90
4433;DHT22;2229;48.708;9.706;2023-04-25T09:19:21;9.60;99.90
4433;DHT22;2229;48.708;9.706;2023-04-25T09:21:49;9.60;99.90
4433;DHT22;2229;48.708;9.706;2023-04-25T09:24:20;9.60;99.90
4433;DHT22;2229;48.708;9.706;2023-04-25T09:26:56;9.60;99.90
4433;DHT22;2229;48.708;9.706;2023-04-25T09:29:29;9.60;99.90
4433;DHT22;2229;48.708;9.706;2023-04-25T09:32:13;9.60;99.90
4433;DHT22;2229;48.708;9.706;2023-04-25T09:34:41;9.50;99.90
4433;DHT22;2229;48.708;9.706;2023-04-25T09:37:11;9.50;99.90
4433;DHT22;2229;48.708;9.706;2023-04-25T09:39:58;9.40;99.90
4433;DHT22;2229;48.708;9.706;2023-04-25T09:42:27;9.40;99.90
4433;DHT22;2229;48.708;9.706;2023-04-25T09:44:55;9.40;99.90
4433;DHT22;2229;48.708;9.706;2023-04-25T09:47:26;9.40;99.90
4433;DHT22;2229;48.708;9.706;2023-04-25T09:49:55;9.40;99.90
4433;DHT22;2229;48.708;9.706;2023-04-25T09:52:23;9.30;99.90
4433;DHT22;2229;48.708;9.706;2023-04-25T09:55:02;9.20;99.90
4433;DHT22;2229;48.708;9.706;2023-04-25T09:57:33;9.20;99.90
4433;DHT22;2229;48.708;9.706;2023-04-25T10:00:08;9.20;99.90
4433;DHT22;2229;48.708;9.706;2023-04-25T10:02:43;9.10;99.90
4433;DHT22;2229;48.708;9.706;2023-04-25T10:05:31;9.10;99.90
4433;DHT22;2229;48.708;9.706;2023-04-25T10:08:00;9.00;99.90
4433;DHT22;2229;48.708;9.706;2023-04-25T10:10:30;9.00;99.90
4433;DHT22;2229;48.708;9.706;2023-04-25T10:13:04;9.00;99.90
4433;DHT22;2229;48.708;9.706;2023-04-25T10:15:34;8.90;99.90
4433;DHT22;2229;48.708;9.706;2023-04-25T10:18:03;8.90;99.90
4433;DHT22;2229;48.708;9.706;2023-04-25T10:20:32;8.80;99.90
4433;DHT22;2229;48.708;9.706;2023-04-25T10:23:08;8.80;99.90
4433;DHT22;2229;48.708;9.706;2023-04-25T10:25:39;8.70;99.90
4433;DHT22;2229;48.708;9.706;2023-04-25T10:28:06;8.70;99.90
4433;DHT22;2229;48.708;9.706;2023-04-25T10:30:34;8.60;99.90
4433;DHT22;2229;48.708;9.706;2023-04-25T10:33:16;8.70;99.90
4433;DHT22;2229;48.708;9.706;2023-04-25T10:35:45;8.70;99.90
4433;DHT22;2229;48.708;9.706;2023-04-25T10:38:14;8.70;99.90
4433;DHT22;2229;48.708;9.706;2023-04-25T10:40:41;8.70;99.90
4433;DHT22;2229;48.708;9.706;2023-04-25T10:43:34;8.80;99.90
4433;DHT22;2229;48.708;9.706;2023-04-25T10:46:02;8.80;99.90
4433;DHT22;2229;48.708;9.706;2023-04-25T10:48:31;8.80;99.90
4433;DHT22;2229;48.708;9.706;2023-04-25T10:51:08;8.80;99.90
4433;DHT22;2229;48.708;9.706;2023-04-25T10:53:35;8.70;99.90
4433;DHT22;2229;48.708;9.706;2023-04-25T10:56:10;8.70;99.90
4433;DHT22;2229;48.708;9.706;2023-04-25T10:58:42;8.70;99.90
4433;DHT22;2229;48.708;9.706;2023-04-25T11:01:09;8.80;99.90
4433;DHT22;2229;48.708;9.706;2023-04-25T11:03:40;8.80;99.90
4433;DHT22;2229;48.708;9.706;2023-04-25T11:06:16;8.80;99.90
4433;DHT22;2229;48.708;9.706;2023-04-25T11:08:48;8.70;99.90
4433;DHT22;2229;48.708;9.706;2023-04-25T11:11:16;8.70;99.90
4433;DHT22;2229;48.708;9.706;2023-04-25T11:13:46;8.60;99.90
4433;DHT22;2229;48.708;9.706;2023-04-25T11:16:14;8.70;99.90
4433;DHT22;2229;48.708;9.706;2023-04-25T11:18:44;8.70;99.90
4433;DHT22;2229;48.708;9.706;2023-04-25T11:21:11;8.70;99.90
4433;DHT22;2229;48.708;9.706;2023-04-25T11:23:39;8.80;99.90
4433;DHT22;2229;48.708;9.706;2023-04-25T11:26:06;8.90;99.90
4433;DHT22;2229;48.708;9.706;2023-04-25T11:28:33;8.90;99.90
4433;DHT22;2229;48.708;9.706;2023-04-25T11:31:02;8.90;99.90
4433;DHT22;2229;48.708;9.706;2023-04-25T11:33:30;8.90;99.90
4433;DHT22;2229;48.708;9.706;2023-04-25T11:35:59;8.70;99.90
4433;DHT22;2229;48.708;9.706;2023-04-25T11:38:26;8.70;99.90
4433;DHT22;2229;48.708;9.706;2023-04-25T11:40:54;8.60;99.90
4433;DHT22;2229;48.708;9.706;2023-04-25T11:43:22;8.50;99.90
4433;DHT22;2229;48.708;9.706;2023-04-25T11:45:50;8.50;99.90
4433;DHT22;2229;48.708;9.706;2023-04-25T11:48:18;8.40;99.90
4433;DHT22;2229;48.708;9.706;2023-04-25T11:50:46;8.50;99.90
4433;DHT22;2229;48.708;9.706;2023-04-25T11:53:17;8.50;99.90
4433;DHT22;2229;48.708;9.706;2023-04-25T11:55:45;8.60;99.90
4433;DHT22;2229;48.708;9.706;2023-04-25T11:58:13;8.60;99.90
4433;DHT22;2229;48.708;9.706;2023-04-25T12:00:42;8.60;99.90
4433;DHT22;2229;48.708;9.706;2023-04-25T12:03:09;8.50;99.90
4433;DHT22;2229;48.708;9.706;2023-04-25T12:05:37;8.50;99.90
4433;DHT22;2229;48.708;9.706;2023-04-25T12:08:12;8.50;99.90
4433;DHT22;2229;48.708;9.706;2023-04-25T12:10:42;8.40;99.90
4433;DHT22;2229;48.708;9.706;2023-04-25T12:13:23;8.40;99.90
4433;DHT22;2229;48.708;9.706;2023-04-25T12:15:52;8.30;99.90
4433;DHT22;2229;48.708;9.706;2023-04-25T12:18:22;8.40;99.90
4433;DHT22;2229;48.708;9.706;2023-04-25T12:20:52;8.30;99.90
4433;DHT22;2229;48.708;9.706;2023-04-25T12:23:25;8.40;99.90
4433;DHT22;2229;48.708;9.706;2023-04-25T12:25:54;8.40;99.90
4433;DHT22;2229;48.708;9.706;2023-04-25T12:28:22;8.50;99.90
4433;DHT22;2229;48.708;9.706;2023-04-25T12:30:58;8.50;99.90
4433;DHT22;2229;48.708;9.706;2023-04-25T12:33:27;8.60;99.90
4433;DHT22;2229;48.708;9.706;2023-04-25T12:35:55;8.70;99.90
4433;DHT22;2229;48.708;9.706;2023-04-25T12:38:24;8.80;99.90
4433;DHT22;2229;48.708;9.706;2023-04-25T12:40:53;8.80;99.90
4433;DHT22;2229;48.708;9.706;2023-04-25T12:43:20;8.90;99.90
4433;DHT22;2229;48.708;9.706;2023-04-25T12:45:49;9.10;99.90
4433;DHT22;2229;48.708;9.706;2023-04-25T12:48:17;9.20;99.90
4433;DHT22;2229;48.708;9.706;2023-04-25T12:50:44;9.20;99.90
4433;DHT22;2229;48.708;9.706;2023-04-25T12:53:13;9.40;99.90
4433;DHT22;2229;48.708;9.706;2023-04-25T12:55:41;9.50;99.90
4433;DHT22;2229;48.708;9.706;2023-04-25T12:58:09;9.70;99.90
4433;DHT22;2229;48.708;9.706;2023-04-25T13:00:36;9.80;99.90
4433;DHT22;2229;48.708;9.706;2023-04-25T13:03:03;9.90;99.90
4433;DHT22;2229;48.708;9.706;2023-04-25T13:05:31;10.10;99.90
4433;DHT22;2229;48.708;9.706;2023-04-25T13:07:58;10.30;99.90
4433;DHT22;2229;48.708;9.706;2023-04-25T13:10:26;10.40;99.90
4433;DHT22;2229;48.708;9.706;2023-04-25T13:12:53;10.40;99.90
4433;DHT22;2229;48.708;9.706;2023-04-25T13:15:21;10.50;99.90
4433;DHT22;2229;48.708;9.706;2023-04-25T13:17:49;10.60;99.90
4433;DHT22;2229;48.708;9.706;2023-04-25T13:20:16;10.80;99.90
4433;DHT22;2229;48.708;9.706;2023-04-25T13:22:46;10.90;99.90
4433;DHT22;2229;48.708;9.706;2023-04-25T13:25:13;10.90;99.90
4433;DHT22;2229;48.708;9.706;2023-04-25T13:27:41;10.90;99.90
4433;DHT22;2229;48.708;9.706;2023-04-25T13:30:10;10.90;99.90
4433;DHT22;2229;48.708;9.706;2023-04-25T13:32:39;11.00;99.90
4433;DHT22;2229;48.708;9.706;2023-04-25T13:35:08;11.00;99.90
4433;DHT22;2229;48.708;9.706;2023-04-25T13:37:36;11.00;99.90
4433;DHT22;2229;48.708;9.706;2023-04-25T13:40:06;11.00;99.90
4433;DHT22;2229;48.708;9.706;2023-04-25T13:42:35;10.90;99.90
4433;DHT22;2229;48.708;9.706;2023-04-25T13:45:02;10.90;99.90
4433;DHT22;2229;48.708;9.706;2023-04-25T13:47:31;10.80;99.40
4433;DHT22;2229;48.708;9.706;2023-04-25T13:50:00;10.70;99.50
4433;DHT22;2229;48.708;9.706;2023-04-25T13:52:29;10.60;99.40
4433;DHT22;2229;48.708;9.706;2023-04-25T13:54:56;10.60;99.80
4433;DHT22;2229;48.708;9.706;2023-04-25T13:57:24;10.50;99.90
4433;DHT22;2229;48.708;9.706;2023-04-25T13:59:51;10.60;99.90
4433;DHT22;2229;48.708;9.706;2023-04-25T14:02:18;10.60;99.90
4433;DHT22;2229;48.708;9.706;2023-04-25T14:04:45;10.70;99.90
4433;DHT22;2229;48.708;9.706;2023-04-25T14:07:14;10.90;99.90
4433;DHT22;2229;48.708;9.706;2023-04-25T14:09:42;11.00;99.90
4433;DHT22;2229;48.708;9.706;2023-04-25T14:12:10;11.20;99.90
4433;DHT22;2229;48.708;9.706;2023-04-25T14:14:37;11.40;99.90
4433;DHT22;2229;48.708;9.706;2023-04-25T14:17:04;11.70;99.90
4433;DHT22;2229;48.708;9.706;2023-04-25T14:19:32;11.90;99.90
4433;DHT22;2229;48.708;9.706;2023-04-25T14:21:59;12.10;99.90
4433;DHT22;2229;48.708;9.706;2023-04-25T14:24:28;12.10;99.90
4433;DHT22;2229;48.708;9.706;2023-04-25T14:26:55;12.10;99.00
4433;DHT22;2229;48.708;9.706;2023-04-25T14:29:23;11.90;97.90
4433;DHT22;2229;48.708;9.706;2023-04-25T14:31:50;11.80;97.40
4433;DHT22;2229;48.708;9.706;2023-04-25T14:34:17;11.60;97.30
4433;DHT22;2229;48.708;9.706;2023-04-25T14:36:44;11.50;96.90
4433;DHT22;2229;48.708;9.706;2023-04-25T14:39:12;11.40;96.80
4433;DHT22;2229;48.708;9.706;2023-04-25T14:41:42;11.20;96.80
4433;DHT22;2229;48.708;9.706;2023-04-25T14:44:09;11.10;96.90
4433;DHT22;2229;48.708;9.706;2023-04-25T14:46:36;11.10;97.20
4433;DHT22;2229;48.708;9.706;2023-04-25T14:49:04;11.10;97.50
4433;DHT22;2229;48.708;9.706;2023-04-25T14:51:31;11.10;97.70
4433;DHT22;2229;48.708;9.706;2023-04-25T14:53:59;11.10;97.70
4433;DHT22;2229;48.708;9.706;2023-04-25T14:56:26;11.10;97.70
4433;DHT22;2229;48.708;9.706;2023-04-25T14:58:54;11.10;97.50
4433;DHT22;2229;48.708;9.706;2023-04-25T15:01:23;11.10;97.30
4433;DHT22;2229;48.708;9.706;2023-04-25T15:03:50;11.00;97.10
4433;DHT22;2229;48.708;9.706;2023-04-25T15:06:18;10.90;97.00
4433;DHT22;2229;48.708;9.706;2023-04-25T15:08:46;10.60;97.10
4433;DHT22;2229;48.708;9.706;2023-04-25T15:11:13;10.90;97.50
4433;DHT22;2229;48.708;9.706;2023-04-25T15:13:40;10.70;97.40
4433;DHT22;2229;48.708;9.706;2023-04-25T15:16:08;10.80;97.60
4433;DHT22;2229;48.708;9.706;2023-04-25T15:18:37;10.80;97.50
4433;DHT22;2229;48.708;9.706;2023-04-25T15:21:04;10.80;97.70
4433;DHT22;2229;48.708;9.706;2023-04-25T15:23:31;10.90;97.90
4433;DHT22;2229;48.708;9.706;2023-04-25T15:25:58;11.00;98.40
4433;DHT22;2229;48.708;9.706;2023-04-25T15:28:25;11.20;98.60
4433;DHT22;2229;48.708;9.706;2023-04-25T15:30:53;11.50;98.20
4433;DHT22;2229;48.708;9.706;2023-04-25T15:33:21;11.60;97.50
4433;DHT22;2229;48.708;9.706;2023-04-25T15:35:48;11.80;97.40
4433;DHT22;2229;48.708;9.706;2023-04-25T15:38:16;11.80;97.10
4433;DHT22;2229;48.708;9.706;2023-04-25T15:40:43;11.90;96.90
4433;DHT22;2229;48.708;9.706;2023-04-25T15:43:10;11.90;96.60
4433;DHT22;2229;48.708;9.706;2023-04-25T15:45:40;11.90;96.90
4433;DHT22;2229;48.708;9.706;2023-04-25T15:48:08;11.90;96.70
4433;DHT22;2229;48.708;9.706;2023-04-25T15:50:37;11.90;96.50
4433;DHT22;2229;48.708;9.706;2023-04-25T15:53:04;12.00;96.60
4433;DHT22;2229;48.708;9.706;2023-04-25T15:55:33;12.10;96.40
4433;DHT22;2229;48.708;9.706;2023-04-25T15:58:00;12.10;95.90
4433;DHT22;2229;48.708;9.706;2023-04-25T16:00:27;12.10;95.30
4433;DHT22;2229;48.708;9.706;2023-04-25T16:02:56;12.10;95.00
4433;DHT22;2229;48.708;9.706;2023-04-25T16:05:23;12.00;95.00
4433;DHT22;2229;48.708;9.706;2023-04-25T16:07:51;11.90;94.80
4433;DHT22;2229;48.708;9.706;2023-04-25T16:10:20;11.90;95.00
4433;DHT22;2229;48.708;9.706;2023-04-25T16:12:48;11.90;94.70
4433;DHT22;2229;48.708;9.706;2023-04-25T16:15:16;11.80;94.50
4433;DHT22;2229;48.708;9.706;2023-04-25T16:17:43;11.60;93.90
4433;DHT22;2229;48.708;9.706;2023-04-25T16:20:11;11.50;94.00
4433;DHT22;2229;48.708;9.706;2023-04-25T16:22:39;11.40;94.30
4433;DHT22;2229;48.708;9.706;2023-04-25T16:25:09;11.20;94.20
4433;DHT22;2229;48.708;9.706;2023-04-25T16:27:38;11.00;94.10
4433;DHT22;2229;48.708;9.706;2023-04-25T16:30:06;10.90;94.30
4433;DHT22;2229;48.708;9.706;2023-04-25T16:32:34;10.80;94.50